Time;durP1;ratioP1;P1;durP2;ratioP2;P2;SDS_P1;SDS_P2;PMS_P1;PMS_P2;Temp;Humidity;BMP_temperature;BMP_pressure;BME280_temperature;BME280_humidity;BME280_pressure;Samples;Min_cycle;Max_cycle;Signal;HPM_P1;HPM_P2
2021/05/31 00:00:25;;;;;;;0.17;0.17;;;15.20;70.70;;;;;;5024577;28;20030;-85
2021/05/31 00:02:51;;;;;;;0.10;0.10;;;15.30;70.20;;;;;;5007912;28;20025;-85
2021/05/31 00:05:22;;;;;;;0.20;0.20;;;15.30;70.20;;;;;;5016540;28;20402;-85
2021/05/31 00:07:48;;;;;;;0.00;0.00;;;15.30;70.30;;;;;;5025758;28;20576;-84
2021/05/31 00:10:13;;;;;;;0.10;0.10;;;15.10;71.60;;;;;;5011409;28;20193;-85
2021/05/31 00:12:39;;;;;;;0.13;0.13;;;15.20;71.40;;;;;;5014041;28;20575;-84
2021/05/31 00:15:07;;;;;;;0.13;0.13;;;15.00;71.80;;;;;;5013164;28;20414;-85
2021/05/31 00:17:34;;;;;;;0.00;0.00;;;15.00;72.10;;;;;;4997549;28;20041;-85
2021/05/31 00:20:00;;;;;;;;;;;15.10;72.00;;;;;;5031615;28;20077;-85
2021/05/31 00:22:41;;;;;;;0.10;0.10;;;15.00;73.40;;;;;;5021404;28;20324;-85
2021/05/31 00:25:08;;;;;;;0.10;0.10;;;15.00;73.10;;;;;;5017424;28;20053;-84
2021/05/31 00:27:38;;;;;;;0.55;0.55;;;14.80;73.60;;;;;;5016715;28;20029;-84
2021/05/31 00:30:06;;;;;;;0.10;0.10;;;15.00;73.50;;;;;;5013730;28;20050;-84
2021/05/31 00:32:32;;;;;;;0.00;0.00;;;14.90;73.20;;;;;;5022128;28;20025;-85
2021/05/31 00:34:58;;;;;;;0.10;0.10;;;14.80;74.30;;;;;;5014277;28;20044;-85
2021/05/31 00:37:24;;;;;;;0.37;0.20;;;14.80;74.10;;;;;;5027682;28;20029;-85
2021/05/31 00:39:50;;;;;;;0.47;0.47;;;14.60;74.90;;;;;;5019612;28;20025;-86
2021/05/31 00:42:16;;;;;;;0.00;0.00;;;14.60;75.90;;;;;;5021632;28;20748;-85
2021/05/31 00:44:42;;;;;;;0.00;0.00;;;14.50;74.90;;;;;;5026819;28;20082;-85
2021/05/31 00:47:08;;;;;;;0.03;0.03;;;14.50;75.50;;;;;;5028202;28;20025;-85
2021/05/31 00:49:39;;;;;;;0.03;0.03;;;14.60;75.00;;;;;;5029462;28;20065;-84
2021/05/31 00:52:07;;;;;;;0.20;0.20;;;14.40;76.00;;;;;;5025472;28;20051;-84
2021/05/31 00:54:34;;;;;;;0.00;0.00;;;14.40;76.30;;;;;;5030463;28;20510;-84
2021/05/31 00:57:00;;;;;;;1.77;0.45;;;14.40;76.70;;;;;;5024068;28;20433;-85
2021/05/31 00:59:26;;;;;;;0.10;0.10;;;14.30;77.50;;;;;;5016017;28;20042;-84
2021/05/31 01:01:52;;;;;;;0.00;0.00;;;14.30;76.50;;;;;;5026532;28;20121;-83
2021/05/31 01:04:19;;;;;;;0.10;0.10;;;14.30;76.90;;;;;;5018408;28;20053;-84
2021/05/31 01:07:23;;;;;;;0.00;0.00;;;14.20;77.20;;;;;;5014793;28;20030;-84
2021/05/31 01:10:10;;;;;;;0.10;0.10;;;14.10;77.80;;;;;;5025230;28;20545;-84
2021/05/31 01:12:57;;;;;;;0.10;0.10;;;14.10;78.00;;;;;;5019055;28;20034;-84
2021/05/31 01:15:25;;;;;;;0.15;0.15;;;13.90;79.70;;;;;;5017552;28;20032;-84
2021/05/31 01:18:15;;;;;;;0.00;0.00;;;14.00;78.50;;;;;;5020946;28;20040;-83
2021/05/31 01:21:14;;;;;;;0.00;0.00;;;14.00;79.50;;;;;;5018367;28;20042;-84
2021/05/31 01:23:54;;;;;;;0.40;0.40;;;14.00;80.10;;;;;;5013862;28;20030;-84
2021/05/31 01:26:21;;;;;;;0.10;0.10;;;13.90;80.90;;;;;;5010018;28;20072;-84
2021/05/31 01:28:50;;;;;;;;;;;14.00;80.10;;;;;;5027164;28;20083;-85
2021/05/31 01:31:20;;;;;;;0.00;0.00;;;13.90;80.90;;;;;;5022529;28;19913;-84
2021/05/31 01:33:49;;;;;;;0.00;0.00;;;13.80;81.00;;;;;;5027100;28;20025;-84
2021/05/31 01:36:15;;;;;;;0.10;0.10;;;13.90;81.30;;;;;;5026506;28;20026;-84
2021/05/31 01:38:42;;;;;;;0.10;0.10;;;13.70;81.80;;;;;;5024278;28;20028;-84
2021/05/31 01:41:10;;;;;;;0.10;0.10;;;13.60;83.20;;;;;;5013393;28;20038;-84
2021/05/31 01:43:38;;;;;;;0.70;0.57;;;13.50;83.20;;;;;;5027177;28;20025;-84
2021/05/31 01:46:05;;;;;;;0.05;0.05;;;13.50;83.20;;;;;;5015490;28;20030;-86
2021/05/31 01:48:31;;;;;;;0.30;0.30;;;13.50;83.50;;;;;;5018228;28;20034;-85
2021/05/31 01:51:03;;;;;;;0.10;0.10;;;13.50;83.90;;;;;;5027950;28;20029;-86
2021/05/31 01:53:38;;;;;;;0.10;0.10;;;13.50;84.00;;;;;;5050323;28;20028;-86
2021/05/31 01:56:05;;;;;;;0.10;0.10;;;13.50;84.60;;;;;;5029677;28;20088;-85
2021/05/31 01:58:30;;;;;;;0.00;0.00;;;13.70;82.70;;;;;;5024665;28;20038;-85
2021/05/31 02:00:57;;;;;;;0.00;0.00;;;13.70;83.90;;;;;;5015624;28;20026;-86
2021/05/31 02:03:23;;;;;;;0.00;0.00;;;13.50;84.10;;;;;;5026825;28;20489;-86
2021/05/31 02:05:49;;;;;;;0.10;0.10;;;13.60;83.60;;;;;;5023493;28;20061;-86
2021/05/31 02:08:14;;;;;;;0.17;0.17;;;13.70;84.10;;;;;;5018432;28;20030;-86
2021/05/31 02:10:40;;;;;;;0.00;0.00;;;13.60;84.40;;;;;;5020293;28;20033;-85
2021/05/31 02:13:08;;;;;;;0.00;0.00;;;13.70;84.30;;;;;;5021815;28;20080;-85
2021/05/31 02:15:52;;;;;;;0.25;0.15;;;13.50;85.60;;;;;;5024406;28;20497;-86
2021/05/31 02:18:29;;;;;;;0.25;0.13;;;13.40;85.40;;;;;;5021958;28;20753;-85
2021/05/31 02:21:18;;;;;;;0.17;0.10;;;13.40;85.70;;;;;;5016859;28;20781;-86
2021/05/31 02:23:52;;;;;;;0.20;0.20;;;13.30;86.60;;;;;;5008756;28;20017;-85
2021/05/31 02:26:20;;;;;;;0.10;0.10;;;13.30;86.70;;;;;;5010663;28;20022;-86
2021/05/31 02:28:47;;;;;;;0.20;0.20;;;13.20;86.60;;;;;;5011685;28;20025;-86
2021/05/31 02:31:18;;;;;;;0.22;0.15;;;13.20;88.10;;;;;;5021415;28;20069;-85
2021/05/31 02:33:48;;;;;;;0.03;0.03;;;13.10;88.40;;;;;;5015869;28;20033;-84
2021/05/31 02:36:14;;;;;;;0.10;0.10;;;13.00;88.40;;;;;;5017811;28;20760;-84
2021/05/31 02:38:41;;;;;;;0.20;0.20;;;13.00;88.90;;;;;;5019256;28;20028;-85
2021/05/31 02:41:08;;;;;;;0.00;0.00;;;12.90;88.90;;;;;;5024053;28;20490;-84
2021/05/31 02:43:34;;;;;;;0.43;0.20;;;12.90;90.20;;;;;;5019950;28;20069;-85
2021/05/31 02:46:00;;;;;;;0.00;0.00;;;12.80;90.10;;;;;;5014640;28;20029;-84
2021/05/31 02:48:26;;;;;;;0.45;0.28;;;12.80;90.70;;;;;;5018067;28;20030;-84
2021/05/31 02:50:58;;;;;;;0.30;0.30;;;12.70;90.50;;;;;;5020952;28;20048;-84
2021/05/31 02:53:31;;;;;;;0.08;0.08;;;12.70;91.10;;;;;;5022760;28;20030;-84
2021/05/31 02:55:57;;;;;;;0.05;0.05;;;12.80;91.10;;;;;;5016775;28;20124;-84
2021/05/31 02:58:23;;;;;;;0.10;0.10;;;12.70;91.10;;;;;;5027005;28;20036;-84
2021/05/31 03:00:49;;;;;;;0.00;0.00;;;12.70;91.40;;;;;;5022639;28;20292;-83
2021/05/31 03:03:14;;;;;;;0.00;0.00;;;12.70;91.20;;;;;;5026566;28;20056;-84
2021/05/31 03:05:40;;;;;;;0.30;0.30;;;12.80;91.00;;;;;;5020492;28;20064;-84
2021/05/31 03:08:07;;;;;;;0.20;0.20;;;12.80;91.80;;;;;;5017488;28;20029;-83
2021/05/31 03:10:33;;;;;;;0.10;0.10;;;12.70;91.80;;;;;;5024876;28;20425;-84
2021/05/31 03:13:00;;;;;;;0.00;0.00;;;12.80;91.30;;;;;;5016553;28;20505;-84
2021/05/31 03:15:27;;;;;;;0.00;0.00;;;12.60;91.70;;;;;;5016244;28;20048;-84
2021/05/31 03:17:53;;;;;;;0.08;0.08;;;12.50;91.90;;;;;;5017342;28;20030;-85
2021/05/31 03:20:26;;;;;;;0.10;0.10;;;12.60;92.00;;;;;;5019489;28;20042;-84
2021/05/31 03:22:54;;;;;;;0.00;0.00;;;12.50;92.20;;;;;;5023232;28;20060;-84
2021/05/31 03:25:21;;;;;;;0.00;0.00;;;12.50;92.10;;;;;;5027241;28;20022;-83
2021/05/31 03:27:47;;;;;;;0.00;0.00;;;12.50;92.80;;;;;;5025042;28;20480;-83
2021/05/31 03:30:14;;;;;;;0.03;0.03;;;12.50;92.50;;;;;;5010842;28;20083;-84
2021/05/31 03:32:40;;;;;;;0.30;0.30;;;12.50;92.40;;;;;;5010945;28;20860;-84
2021/05/31 03:35:08;;;;;;;0.10;0.10;;;12.50;92.30;;;;;;5020424;28;20060;-84
2021/05/31 03:37:34;;;;;;;0.00;0.00;;;12.50;92.50;;;;;;5025272;28;20021;-84
2021/05/31 03:40:00;;;;;;;0.00;0.00;;;12.30;93.00;;;;;;5026980;28;20034;-83
2021/05/31 03:42:27;;;;;;;0.20;0.20;;;12.30;92.60;;;;;;5018897;28;20029;-83
2021/05/31 03:44:54;;;;;;;0.03;0.03;;;12.30;93.10;;;;;;5018261;28;20017;-84
2021/05/31 03:47:20;;;;;;;0.15;0.05;;;12.30;93.20;;;;;;5020427;28;20026;-83
2021/05/31 03:49:45;;;;;;;0.00;0.00;;;12.20;93.10;;;;;;5026525;28;20730;-84
2021/05/31 03:52:11;;;;;;;0.47;0.20;;;12.20;93.40;;;;;;5018312;28;20037;-84
2021/05/31 03:54:41;;;;;;;0.10;0.10;;;12.40;93.10;;;;;;5024415;28;20388;-84
2021/05/31 03:57:07;;;;;;;0.00;0.00;;;12.40;93.40;;;;;;5023968;28;20180;-83
2021/05/31 03:59:33;;;;;;;0.22;0.22;;;12.20;93.30;;;;;;5022882;28;20569;-83
2021/05/31 04:02:00;;;;;;;2.95;0.20;;;12.20;93.20;;;;;;5026290;28;20040;-83
2021/05/31 04:04:26;;;;;;;0.20;0.20;;;12.30;97.00;;;;;;5022021;28;20033;-83
2021/05/31 04:07:22;;;;;;;0.00;0.00;;;12.30;93.70;;;;;;5022849;28;20026;-82
2021/05/31 04:12:22;;;;;;;0.10;0.10;;;12.20;93.90;;;;;;5023720;28;20437;-82
2021/05/31 04:14:47;;;;;;;0.10;0.10;;;12.20;94.30;;;;;;5030239;28;20022;-83
2021/05/31 04:17:13;;;;;;;0.00;0.00;;;12.10;94.20;;;;;;5022857;28;20033;-82
2021/05/31 04:19:39;;;;;;;0.05;0.05;;;12.20;94.20;;;;;;5019751;28;20042;-84
2021/05/31 04:22:05;;;;;;;0.10;0.10;;;12.10;94.30;;;;;;5022511;28;20040;-83
2021/05/31 04:24:33;;;;;;;0.00;0.00;;;12.40;95.20;;;;;;5021780;28;20033;-83
2021/05/31 04:27:05;;;;;;;0.10;0.10;;;12.80;94.60;;;;;;5011703;28;20037;-83
2021/05/31 04:29:31;;;;;;;0.00;0.00;;;13.20;93.50;;;;;;5022301;28;20029;-83
2021/05/31 04:31:57;;;;;;;0.00;0.00;;;13.50;93.40;;;;;;5030940;28;20029;-83
2021/05/31 04:34:22;;;;;;;0.13;0.13;;;13.70;92.70;;;;;;5026055;28;20029;-83
2021/05/31 04:36:48;;;;;;;0.10;0.10;;;14.00;92.50;;;;;;5024476;28;20033;-83
2021/05/31 04:39:14;;;;;;;0.13;0.13;;;14.10;91.90;;;;;;5024034;28;20021;-83
2021/05/31 04:41:41;;;;;;;0.10;0.10;;;14.30;91.50;;;;;;5026491;28;20060;-83
2021/05/31 04:44:07;;;;;;;;;;;14.30;91.30;;;;;;5028009;28;20083;-83
2021/05/31 04:46:33;;;;;;;0.00;0.00;;;14.60;91.10;;;;;;5036156;28;20631;-83
2021/05/31 04:49:03;;;;;;;0.10;0.10;;;14.80;91.20;;;;;;5024484;28;20022;-82
2021/05/31 04:51:29;;;;;;;0.10;0.10;;;15.10;90.40;;;;;;5030563;28;20117;-82
2021/05/31 04:53:57;;;;;;;0.20;0.20;;;15.20;89.10;;;;;;5030280;28;20028;-83
2021/05/31 04:56:24;;;;;;;0.28;0.22;;;15.40;89.60;;;;;;5032288;28;20268;-83
2021/05/31 04:58:50;;;;;;;0.10;0.10;;;15.60;88.00;;;;;;5032040;28;20024;-83
2021/05/31 05:01:16;;;;;;;0.10;0.10;;;15.90;87.80;;;;;;5032290;28;20064;-81
2021/05/31 05:03:42;;;;;;;0.00;0.00;;;15.80;88.20;;;;;;5032964;28;20049;-83
2021/05/31 05:06:08;;;;;;;0.20;0.20;;;16.20;86.10;;;;;;5051969;28;20087;-83
2021/05/31 05:08:33;;;;;;;0.10;0.10;;;16.30;85.70;;;;;;5047631;28;20034;-83
2021/05/31 05:10:59;;;;;;;0.20;0.10;;;16.50;85.60;;;;;;5030518;28;20497;-81
2021/05/31 05:13:25;;;;;;;0.33;0.13;;;16.60;86.20;;;;;;5029821;28;20034;-81
2021/05/31 05:15:51;;;;;;;0.20;0.20;;;15.40;87.50;;;;;;5027465;28;20268;-81
2021/05/31 05:18:17;;;;;;;0.10;0.10;;;14.90;89.20;;;;;;5015311;28;20018;-82
2021/05/31 05:20:43;;;;;;;0.10;0.10;;;15.00;89.90;;;;;;5012515;28;20041;-83
2021/05/31 05:23:09;;;;;;;0.10;0.10;;;15.60;86.50;;;;;;5023514;28;20382;-83
2021/05/31 05:25:35;;;;;;;0.10;0.10;;;15.30;88.30;;;;;;5036538;28;20038;-82
2021/05/31 05:28:01;;;;;;;0.10;0.10;;;17.50;83.90;;;;;;5038171;28;20424;-82
2021/05/31 05:30:32;;;;;;;0.03;0.03;;;18.00;80.60;;;;;;5022905;28;20315;-81
2021/05/31 05:33:01;;;;;;;0.00;0.00;;;18.60;80.10;;;;;;5026565;28;20033;-83
2021/05/31 05:35:33;;;;;;;0.17;0.10;;;18.80;84.30;;;;;;5029797;28;20061;-82
2021/05/31 05:46:03;;;;;;;0.00;0.00;;;19.00;73.50;;;;;;5011719;28;20033;-83
2021/05/31 05:48:29;;;;;;;0.00;0.00;;;18.90;74.20;;;;;;5014402;28;20033;-83
2021/05/31 05:51:06;;;;;;;0.05;0.05;;;18.90;76.60;;;;;;5010122;28;20034;-83
2021/05/31 05:53:34;;;;;;;0.00;0.00;;;19.10;74.20;;;;;;5016678;28;20117;-83
2021/05/31 05:56:00;;;;;;;0.00;0.00;;;19.50;72.00;;;;;;5028863;28;20104;-83
2021/05/31 05:58:29;;;;;;;0.05;0.05;;;19.90;72.50;;;;;;5020177;28;20117;-83
2021/05/31 06:00:56;;;;;;;0.03;0.03;;;20.30;70.70;;;;;;5010823;28;20064;-83
2021/05/31 06:03:22;;;;;;;0.40;0.22;;;20.60;70.10;;;;;;5010487;28;20021;-83
2021/05/31 06:05:47;;;;;;;0.00;0.00;;;20.90;67.00;;;;;;5011215;28;20450;-84
2021/05/31 06:08:13;;;;;;;0.00;0.00;;;20.60;68.00;;;;;;5013824;28;20029;-83
2021/05/31 06:10:39;;;;;;;0.03;0.03;;;20.70;68.00;;;;;;5030337;28;20026;-83
2021/05/31 06:13:05;;;;;;;0.00;0.00;;;21.10;68.20;;;;;;5030307;28;20034;-83
2021/05/31 06:15:30;;;;;;;0.00;0.00;;;20.80;69.80;;;;;;5030417;28;20037;-83
2021/05/31 06:17:57;;;;;;;0.00;0.00;;;20.30;67.50;;;;;;5030363;28;20404;-83
2021/05/31 06:20:22;;;;;;;0.20;0.00;;;20.60;67.40;;;;;;5030071;28;20067;-83
2021/05/31 06:22:48;;;;;;;0.05;0.05;;;20.70;66.20;;;;;;5029943;28;20083;-83
2021/05/31 06:25:14;;;;;;;0.00;0.00;;;20.60;67.40;;;;;;5011711;28;20022;-83
2021/05/31 06:27:40;;;;;;;0.00;0.00;;;21.60;65.60;;;;;;5010202;28;20034;-83
2021/05/31 06:30:07;;;;;;;0.00;0.00;;;21.60;65.50;;;;;;5010132;28;20026;-83
2021/05/31 06:32:33;;;;;;;0.00;0.00;;;22.00;64.40;;;;;;5013389;28;20030;-83
2021/05/31 06:34:59;;;;;;;0.10;0.00;;;22.50;63.20;;;;;;5021375;28;20033;-83
2021/05/31 06:37:26;;;;;;;0.10;0.10;;;22.40;63.10;;;;;;5009805;28;20052;-83
2021/05/31 06:39:51;;;;;;;0.00;0.00;;;21.80;62.70;;;;;;5025294;28;20029;-83
2021/05/31 06:42:17;;;;;;;0.00;0.00;;;23.20;59.40;;;;;;5022056;28;20026;-83
2021/05/31 06:44:43;;;;;;;0.00;0.00;;;23.10;57.80;;;;;;5044097;28;20076;-83
2021/05/31 06:47:09;;;;;;;0.00;0.00;;;23.20;59.20;;;;;;5029615;28;20087;-83
2021/05/31 06:49:40;;;;;;;0.00;0.00;;;24.20;55.50;;;;;;5038497;28;20437;-83
2021/05/31 06:52:06;;;;;;;0.00;0.00;;;24.00;57.00;;;;;;5023961;28;20489;-83
2021/05/31 06:54:32;;;;;;;0.20;0.20;;;23.90;57.30;;;;;;5015678;28;20057;-84
2021/05/31 06:56:58;;;;;;;0.00;0.00;;;24.20;56.80;;;;;;5009170;28;20058;-84
2021/05/31 06:59:25;;;;;;;0.00;0.00;;;24.40;56.40;;;;;;5019012;28;20029;-83
2021/05/31 07:01:51;;;;;;;;;;;24.40;54.80;;;;;;5027674;28;20048;-84
2021/05/31 07:04:18;;;;;;;0.00;0.00;;;25.60;54.30;;;;;;5060716;28;19913;-84
2021/05/31 07:06:45;;;;;;;0.10;0.03;;;24.90;53.20;;;;;;5032575;28;20358;-84
2021/05/31 07:09:11;;;;;;;0.10;0.10;;;26.20;51.60;;;;;;5020283;28;20029;-85
2021/05/31 07:11:38;;;;;;;4.32;0.10;;;26.50;50.20;;;;;;5036279;28;20025;-84
2021/05/31 07:14:05;;;;;;;0.08;0.08;;;26.70;50.10;;;;;;5020879;28;20042;-83
2021/05/31 07:16:32;;;;;;;0.00;0.00;;;27.50;46.50;;;;;;5023791;28;20091;-86
2021/05/31 07:18:58;;;;;;;0.80;0.13;;;27.20;44.20;;;;;;5029175;28;20536;-86
2021/05/31 07:21:24;;;;;;;0.00;0.00;;;27.90;45.00;;;;;;5028896;28;20053;-85
2021/05/31 07:23:51;;;;;;;0.05;0.05;;;29.10;41.30;;;;;;5029472;28;20457;-86
2021/05/31 07:26:16;;;;;;;0.10;0.00;;;29.50;41.90;;;;;;5029047;28;20021;-86
2021/05/31 07:28:42;;;;;;;;;;;28.60;40.30;;;;;;5029045;28;20393;-86
2021/05/31 07:31:08;;;;;;;0.00;0.00;;;28.90;41.30;;;;;;5029294;28;19963;-86
2021/05/31 07:33:33;;;;;;;;;;;29.40;37.30;;;;;;5028038;28;20033;-86
2021/05/31 07:36:02;;;;;;;0.00;0.00;;;29.40;38.70;;;;;;5029204;28;19987;-86
2021/05/31 07:38:28;;;;;;;0.90;0.05;;;28.80;36.40;;;;;;5027546;28;20405;-86
2021/05/31 07:40:54;;;;;;;0.00;0.00;;;30.00;32.00;;;;;;5028823;28;20043;-86
2021/05/31 07:43:20;;;;;;;0.00;0.00;;;30.30;35.50;;;;;;5028750;28;20097;-86
2021/05/31 07:45:47;;;;;;;0.00;0.00;;;30.80;33.60;;;;;;5027702;28;20116;-86
2021/05/31 07:48:13;;;;;;;0.10;0.10;;;30.60;34.00;;;;;;5027719;28;20029;-86
2021/05/31 07:50:39;;;;;;;0.98;0.40;;;30.70;28.60;;;;;;5028685;28;20029;-86
2021/05/31 07:53:05;;;;;;;0.10;0.05;;;30.90;26.60;;;;;;5028720;28;20117;-87
2021/05/31 07:55:31;;;;;;;0.10;0.10;;;31.00;31.90;;;;;;5028474;28;20482;-86
2021/05/31 07:57:57;;;;;;;0.00;0.00;;;32.10;28.80;;;;;;5028711;28;20799;-86
2021/05/31 08:00:24;;;;;;;0.00;0.00;;;32.10;29.80;;;;;;5028492;28;20075;-86
2021/05/31 08:02:51;;;;;;;0.10;0.10;;;33.50;26.60;;;;;;5028741;28;20104;-87
2021/05/31 08:05:18;;;;;;;0.00;0.00;;;32.80;22.40;;;;;;5028813;28;20104;-86
2021/05/31 08:07:44;;;;;;;0.22;0.05;;;33.60;21.60;;;;;;5028354;28;20102;-87
2021/05/31 08:10:12;;;;;;;0.13;0.13;;;35.30;16.50;;;;;;5028828;28;20083;-86
2021/05/31 08:12:38;;;;;;;0.85;0.20;;;33.80;19.80;;;;;;5027004;28;20120;-86
2021/05/31 08:15:06;;;;;;;0.20;0.10;;;30.10;25.50;;;;;;5028790;28;20122;-86
2021/05/31 08:17:32;;;;;;;0.40;0.20;;;31.40;25.50;;;;;;5028359;28;20112;-86
2021/05/31 08:19:58;;;;;;;0.40;0.20;;;32.80;19.50;;;;;;5028533;28;20058;-87
2021/05/31 08:22:24;;;;;;;0.00;0.00;;;32.10;21.30;;;;;;5027223;28;20083;-87
2021/05/31 08:24:50;;;;;;;0.10;0.10;;;32.90;21.00;;;;;;5028424;28;20037;-87
2021/05/31 08:27:16;;;;;;;1.65;0.80;;;31.80;21.90;;;;;;5028760;28;20547;-87
2021/05/31 08:29:42;;;;;;;0.03;0.03;;;34.00;21.30;;;;;;5028499;28;20018;-87
2021/05/31 08:32:08;;;;;;;0.00;0.00;;;31.50;23.10;;;;;;5028723;28;20026;-86
2021/05/31 08:34:34;;;;;;;0.20;0.17;;;32.20;19.40;;;;;;5028463;28;20076;-86
2021/05/31 08:37:00;;;;;;;0.73;0.20;;;31.20;18.90;;;;;;5028405;28;20128;-86
2021/05/31 08:39:26;;;;;;;0.10;0.10;;;32.10;18.30;;;;;;5029590;28;20021;-86
2021/05/31 08:41:52;;;;;;;1.65;0.30;;;33.00;18.00;;;;;;5030172;28;20022;-86
2021/05/31 08:44:18;;;;;;;0.17;0.05;;;32.10;15.60;;;;;;5031834;28;20022;-86
2021/05/31 08:46:44;;;;;;;0.03;0.03;;;32.70;18.60;;;;;;5031630;28;20029;-87
2021/05/31 08:49:10;;;;;;;0.38;0.25;;;33.70;19.60;;;;;;5031723;28;20052;-87
2021/05/31 08:51:37;;;;;;;1.00;0.52;;;36.50;11.60;;;;;;5031660;28;20030;-87
2021/05/31 08:54:04;;;;;;;0.00;0.00;;;36.40;8.80;;;;;;5031299;28;20061;-86
2021/05/31 08:56:31;;;;;;;0.10;0.10;;;37.80;7.10;;;;;;5031393;28;20026;-86
2021/05/31 08:58:57;;;;;;;0.20;0.20;;;32.20;17.10;;;;;;5031403;28;20025;-86
2021/05/31 09:01:24;;;;;;;0.00;0.00;;;31.80;18.90;;;;;;5031568;28;20039;-86
2021/05/31 09:03:56;;;;;;;0.13;0.13;;;35.70;13.40;;;;;;5031385;28;20071;-87
2021/05/31 09:06:23;;;;;;;3.53;0.63;;;38.70;5.70;;;;;;5031474;28;20102;-86
2021/05/31 09:08:56;;;;;;;0.00;0.00;;;38.90;1.70;;;;;;5031104;28;20013;-87
2021/05/31 09:11:24;;;;;;;0.30;0.20;;;34.10;12.00;;;;;;5031487;28;20485;-86
2021/05/31 09:13:50;;;;;;;0.00;0.00;;;33.40;11.80;;;;;;5031526;28;20493;-86
2021/05/31 09:16:22;;;;;;;0.00;0.00;;;36.70;14.80;;;;;;5031211;28;20041;-86
2021/05/31 09:18:51;;;;;;;0.08;0.08;;;39.20;1.80;;;;;;5031343;28;20025;-86
2021/05/31 09:21:24;;;;;;;0.80;0.13;;;40.70;1.00;;;;;;5030947;28;20045;-86
2021/05/31 09:23:53;;;;;;;0.10;0.10;;;39.10;4.20;;;;;;5029999;28;20022;-87
2021/05/31 09:26:19;;;;;;;0.00;0.00;;;39.20;1.00;;;;;;5029822;28;20103;-86
2021/05/31 09:28:58;;;;;;;;;;;39.60;1.00;;;;;;5031167;28;20948;-87
2021/05/31 09:31:25;;;;;;;0.20;0.20;;;39.30;1.00;;;;;;5030986;28;20574;-87
2021/05/31 09:34:02;;;;;;;0.55;0.15;;;39.90;1.00;;;;;;5031038;28;20036;-87
2021/05/31 09:36:30;;;;;;;0.20;0.20;;;38.20;1.40;;;;;;5030700;28;20075;-87
2021/05/31 09:38:57;;;;;;;0.05;0.05;;;37.90;2.50;;;;;;5030828;28;20457;-86
2021/05/31 09:41:32;;;;;;;0.10;0.10;;;38.70;1.30;;;;;;5030708;28;20604;-86
2021/05/31 09:44:01;;;;;;;0.40;0.30;;;40.60;1.00;;;;;;5030567;28;20498;-87
2021/05/31 09:46:43;;;;;;;0.10;0.10;;;38.90;2.50;;;;;;5030188;28;20515;-87
2021/05/31 09:49:20;;;;;;;0.10;0.10;;;38.80;1.00;;;;;;5030739;28;20092;-86
2021/05/31 09:52:04;;;;;;;0.03;0.00;;;40.10;1.00;;;;;;5030455;28;20036;-86
2021/05/31 09:54:44;;;;;;;0.10;0.10;;;40.90;1.00;;;;;;5028771;28;20029;-87
2021/05/31 09:57:24;;;;;;;1.65;0.10;;;39.70;1.00;;;;;;5030513;28;20022;-86
2021/05/31 09:59:58;;;;;;;0.10;0.10;;;41.70;1.00;;;;;;5030529;28;20164;-86
2021/05/31 10:08:39;;;;;;;3.20;0.85;;;37.90;1.00;;;;;;5030685;28;20040;-86
2021/05/31 10:10:50;;;;;;;0.40;0.17;;;39.60;1.00;;;;;;5010525;28;20034;-86
2021/05/31 10:13:18;;;;;;;0.45;0.35;;;39.70;1.00;;;;;;5010539;28;20064;-86
2021/05/31 10:15:44;;;;;;;0.65;0.57;;;41.20;1.00;;;;;;5010076;28;20030;-86
2021/05/31 10:18:14;;;;;;;0.57;0.32;;;40.80;1.00;;;;;;5010271;28;20117;-86
2021/05/31 10:20:41;;;;;;;0.00;0.00;;;40.80;1.00;;;;;;5008573;28;20078;-86
2021/05/31 10:23:09;;;;;;;1.50;0.77;;;39.30;1.00;;;;;;5009837;28;20379;-86
2021/05/31 10:25:40;;;;;;;0.00;0.00;;;39.60;1.00;;;;;;5009702;28;20059;-86
2021/05/31 10:28:11;;;;;;;0.40;0.25;;;40.60;1.00;;;;;;5010075;28;20041;-86
2021/05/31 10:30:41;;;;;;;0.10;0.10;;;39.30;1.00;;;;;;5008642;28;20506;-86
2021/05/31 10:33:21;;;;;;;0.20;0.10;;;40.60;1.00;;;;;;5009864;28;20064;-86
2021/05/31 10:35:48;;;;;;;0.15;0.13;;;40.20;1.00;;;;;;5009593;28;20061;-86
2021/05/31 10:38:20;;;;;;;0.08;0.08;;;40.20;1.00;;;;;;5009821;28;20109;-86
2021/05/31 10:40:53;;;;;;;0.20;0.20;;;42.00;1.00;;;;;;5008543;28;20087;-86
2021/05/31 10:43:22;;;;;;;0.25;0.13;;;37.90;1.00;;;;;;5008438;28;20072;-86
2021/05/31 10:45:49;;;;;;;0.00;0.00;;;38.10;1.00;;;;;;5008339;28;20033;-86
2021/05/31 10:48:19;;;;;;;0.00;0.00;;;32.30;2.80;;;;;;5010022;28;20025;-86
2021/05/31 10:50:50;;;;;;;0.00;0.00;;;34.20;5.20;;;;;;5010057;28;20030;-86
2021/05/31 10:53:19;;;;;;;0.20;0.20;;;38.80;1.00;;;;;;5008270;28;20030;-85
2021/05/31 10:55:58;;;;;;;0.00;0.00;;;37.70;1.00;;;;;;5009594;28;20033;-85
2021/05/31 10:58:29;;;;;;;0.00;0.00;;;38.90;1.00;;;;;;5029440;28;20025;-86
2021/05/31 11:01:02;;;;;;;0.00;0.00;;;33.80;1.30;;;;;;5029137;28;20108;-85
2021/05/31 11:03:43;;;;;;;0.10;0.10;;;32.90;3.90;;;;;;5028728;28;20097;-85
2021/05/31 11:06:17;;;;;;;0.00;0.00;;;30.30;5.20;;;;;;5029245;28;20038;-85
2021/05/31 11:08:49;;;;;;;0.20;0.20;;;35.70;3.80;;;;;;5029374;28;20022;-86
2021/05/31 11:11:30;;;;;;;0.85;0.20;;;38.10;1.00;;;;;;5029287;28;20033;-86
2021/05/31 11:13:58;;;;;;;0.10;0.10;;;36.40;1.00;;;;;;5029135;28;20053;-86
2021/05/31 11:16:24;;;;;;;0.10;0.10;;;31.30;8.00;;;;;;5061040;28;20029;-85
2021/05/31 11:18:58;;;;;;;0.00;0.00;;;34.70;7.00;;;;;;5029230;28;20622;-85
2021/05/31 11:21:36;;;;;;;0.35;0.35;;;36.10;3.90;;;;;;5028573;28;20061;-86
2021/05/31 11:24:07;;;;;;;0.22;0.22;;;35.70;3.90;;;;;;5028708;28;20612;-86
2021/05/31 11:26:36;;;;;;;0.00;0.00;;;37.10;1.00;;;;;;5029479;28;20035;-86
2021/05/31 11:29:04;;;;;;;0.05;0.00;;;32.30;7.80;;;;;;5028906;28;20030;-85
2021/05/31 11:31:31;;;;;;;0.00;0.00;;;29.60;11.40;;;;;;5029388;28;20778;-85
2021/05/31 11:33:57;;;;;;;;;;;29.90;11.70;;;;;;5029587;28;20032;-85
2021/05/31 11:36:31;;;;;;;0.00;0.00;;;29.50;11.80;;;;;;5029064;28;19909;-85
2021/05/31 11:38:57;;;;;;;0.10;0.10;;;29.30;12.70;;;;;;5061516;28;20018;-85
2021/05/31 11:41:40;;;;;;;;;;;29.10;14.10;;;;;;5028117;28;20401;-85
2021/05/31 11:44:11;;;;;;;0.00;0.00;;;28.90;14.40;;;;;;5028842;28;19920;-85
2021/05/31 11:46:57;;;;;;;0.00;0.00;;;28.30;15.10;;;;;;5029139;28;20018;-85
2021/05/31 11:49:25;;;;;;;;;;;27.60;16.20;;;;;;5029224;28;20036;-86
2021/05/31 11:51:59;;;;;;;0.03;0.03;;;27.60;16.60;;;;;;5029080;28;19936;-85
2021/05/31 11:54:28;;;;;;;0.10;0.10;;;27.70;17.20;;;;;;5028341;28;20036;-85
2021/05/31 11:56:58;;;;;;;0.30;0.15;;;28.20;15.30;;;;;;5061228;28;20029;-85
2021/05/31 11:59:37;;;;;;;0.00;0.00;;;27.60;16.90;;;;;;5028822;28;20614;-85
2021/05/31 12:02:13;;;;;;;0.75;0.35;;;27.30;16.60;;;;;;5027532;28;20033;-84
2021/05/31 12:04:42;;;;;;;0.00;0.00;;;27.70;17.40;;;;;;5027573;28;20108;-85
2021/05/31 12:07:10;;;;;;;0.08;0.08;;;28.20;16.70;;;;;;5029100;28;20032;-85
2021/05/31 12:09:38;;;;;;;0.85;0.32;;;28.60;16.00;;;;;;5028456;28;20053;-85
2021/05/31 12:12:04;;;;;;;0.17;0.10;;;28.10;16.00;;;;;;5028491;28;20044;-85
2021/05/31 12:14:45;;;;;;;1.80;0.20;;;27.70;17.70;;;;;;5031295;28;20025;-85
2021/05/31 12:17:12;;;;;;;1.15;0.10;;;27.40;18.80;;;;;;5032689;28;20043;-85
2021/05/31 12:19:39;;;;;;;0.10;0.10;;;26.40;19.40;;;;;;5030782;28;20061;-85
2021/05/31 12:22:06;;;;;;;5.15;0.70;;;27.10;19.10;;;;;;5030791;28;20041;-85
2021/05/31 12:24:42;;;;;;;0.52;0.20;;;27.80;18.60;;;;;;5032043;28;20027;-85
2021/05/31 12:27:08;;;;;;;0.47;0.03;;;27.10;18.40;;;;;;5032129;28;20030;-86
2021/05/31 12:29:38;;;;;;;0.00;0.00;;;26.90;19.10;;;;;;5031531;28;20183;-85
2021/05/31 12:32:05;;;;;;;0.00;0.00;;;27.40;19.00;;;;;;5032104;28;20076;-85
2021/05/31 12:34:32;;;;;;;0.00;0.00;;;27.90;17.80;;;;;;5030427;28;20030;-85
2021/05/31 12:36:59;;;;;;;1.25;0.45;;;28.30;17.00;;;;;;5030686;28;20040;-85
2021/05/31 12:39:25;;;;;;;0.00;0.00;;;27.30;18.80;;;;;;5031798;28;20025;-85
2021/05/31 12:41:50;;;;;;;0.15;0.15;;;26.30;29.10;;;;;;5031873;28;20133;-85
2021/05/31 12:44:16;;;;;;;0.43;0.43;;;26.50;19.50;;;;;;5031830;28;20040;-85
2021/05/31 12:46:44;;;;;;;0.22;0.20;;;26.10;20.40;;;;;;5031957;28;20026;-85
2021/05/31 12:49:14;;;;;;;0.43;0.35;;;26.30;19.70;;;;;;5031872;28;20049;-86
2021/05/31 12:51:51;;;;;;;0.00;0.00;;;26.90;18.40;;;;;;5030544;28;20061;-85
2021/05/31 12:54:19;;;;;;;0.10;0.08;;;27.60;18.90;;;;;;5031928;28;20404;-86
2021/05/31 12:56:45;;;;;;;0.00;0.00;;;28.00;19.30;;;;;;5031679;28;20030;-85
2021/05/31 12:59:11;;;;;;;0.22;0.20;;;27.90;19.00;;;;;;5032138;28;20496;-85
2021/05/31 13:01:37;;;;;;;;;;;27.40;17.50;;;;;;5032133;28;20404;-85
2021/05/31 13:04:03;;;;;;;;;;;26.60;19.80;;;;;;5031002;28;19904;-85
2021/05/31 13:06:46;;;;;;;0.32;0.32;;;27.00;19.00;;;;;;5030460;28;19941;-85
2021/05/31 13:09:23;;;;;;;0.10;0.10;;;27.50;17.80;;;;;;5030095;28;20033;-84
2021/05/31 13:11:49;;;;;;;0.10;0.10;;;27.60;19.30;;;;;;5031763;28;20033;-84
2021/05/31 13:14:23;;;;;;;;;;;27.50;20.30;;;;;;5032184;28;20029;-84
2021/05/31 13:16:59;;;;;;;0.10;0.10;;;27.60;19.30;;;;;;5031569;28;19909;-84